sensor_id;sensor_type;location;lat;lon;timestamp;temperature;humidity
108;DHT22;49;48.530;9.200;2023-06-14T00:01:47;18.10;1.00
108;DHT22;49;48.530;9.200;2023-06-14T00:04:16;18.20;1.00
108;DHT22;49;48.530;9.200;2023-06-14T00:06:44;18.10;1.00
108;DHT22;49;48.530;9.200;2023-06-14T00:09:11;18.30;1.00
108;DHT22;49;48.530;9.200;2023-06-14T00:11:38;18.40;1.00
108;DHT22;49;48.530;9.200;2023-06-14T00:14:05;18.20;1.00
108;DHT22;49;48.530;9.200;2023-06-14T00:16:32;18.20;1.00
108;DHT22;49;48.530;9.200;2023-06-14T00:19:00;18.20;1.00
108;DHT22;49;48.530;9.200;2023-06-14T00:21:30;18.20;1.00
108;DHT22;49;48.530;9.200;2023-06-14T00:23:58;18.10;1.00
108;DHT22;49;48.530;9.200;2023-06-14T00:26:25;18.00;1.00
108;DHT22;49;48.530;9.200;2023-06-14T00:28:52;18.10;1.00
108;DHT22;49;48.530;9.200;2023-06-14T00:31:19;17.90;1.00
108;DHT22;49;48.530;9.200;2023-06-14T00:33:46;18.00;1.00
108;DHT22;49;48.530;9.200;2023-06-14T00:36:13;17.70;1.00
108;DHT22;49;48.530;9.200;2023-06-14T00:38:41;17.60;1.00
108;DHT22;49;48.530;9.200;2023-06-14T00:41:08;17.50;1.00
108;DHT22;49;48.530;9.200;2023-06-14T00:43:35;17.60;1.00
108;DHT22;49;48.530;9.200;2023-06-14T00:46:02;17.50;1.00
108;DHT22;49;48.530;9.200;2023-06-14T00:48:29;17.60;1.00
108;DHT22;49;48.530;9.200;2023-06-14T00:50:58;17.50;1.00
108;DHT22;49;48.530;9.200;2023-06-14T00:53:27;17.40;1.00
108;DHT22;49;48.530;9.200;2023-06-14T00:55:56;17.20;1.00
108;DHT22;49;48.530;9.200;2023-06-14T00:58:23;17.10;1.00
108;DHT22;49;48.530;9.200;2023-06-14T01:00:50;17.00;1.00
108;DHT22;49;48.530;9.200;2023-06-14T01:03:17;17.00;1.00
108;DHT22;49;48.530;9.200;2023-06-14T01:05:48;17.00;1.00
108;DHT22;49;48.530;9.200;2023-06-14T01:08:26;17.20;1.00
108;DHT22;49;48.530;9.200;2023-06-14T01:11:02;17.10;1.00
108;DHT22;49;48.530;9.200;2023-06-14T01:13:34;17.00;1.00
108;DHT22;49;48.530;9.200;2023-06-14T01:16:02;17.00;1.00
108;DHT22;49;48.530;9.200;2023-06-14T01:18:29;17.10;1.00
108;DHT22;49;48.530;9.200;2023-06-14T01:20:56;17.00;1.00
108;DHT22;49;48.530;9.200;2023-06-14T01:23:25;16.90;1.00
108;DHT22;49;48.530;9.200;2023-06-14T01:25:59;16.80;1.00
108;DHT22;49;48.530;9.200;2023-06-14T01:28:29;16.90;1.00
108;DHT22;49;48.530;9.200;2023-06-14T01:31:00;16.90;1.00
108;DHT22;49;48.530;9.200;2023-06-14T01:33:31;16.80;1.00
108;DHT22;49;48.530;9.200;2023-06-14T01:35:59;16.60;1.00
108;DHT22;49;48.530;9.200;2023-06-14T01:38:30;16.60;1.00
108;DHT22;49;48.530;9.200;2023-06-14T01:40:58;16.70;1.00
108;DHT22;49;48.530;9.200;2023-06-14T01:43:30;16.80;1.00
108;DHT22;49;48.530;9.200;2023-06-14T01:45:58;16.70;1.00
108;DHT22;49;48.530;9.200;2023-06-14T01:48:26;16.60;1.00
108;DHT22;49;48.530;9.200;2023-06-14T01:50:53;16.90;1.00
108;DHT22;49;48.530;9.200;2023-06-14T01:53:20;16.90;1.00
108;DHT22;49;48.530;9.200;2023-06-14T01:55:48;16.70;1.00
108;DHT22;49;48.530;9.200;2023-06-14T01:58:15;16.40;1.00
108;DHT22;49;48.530;9.200;2023-06-14T02:00:43;16.30;1.00
108;DHT22;49;48.530;9.200;2023-06-14T02:03:10;16.30;1.00
108;DHT22;49;48.530;9.200;2023-06-14T02:09:01;16.20;1.00
108;DHT22;49;48.530;9.200;2023-06-14T02:11:29;16.10;1.00
108;DHT22;49;48.530;9.200;2023-06-14T02:13:56;16.10;1.00
108;DHT22;49;48.530;9.200;2023-06-14T02:16:25;16.10;1.00
108;DHT22;49;48.530;9.200;2023-06-14T02:18:53;16.20;1.00
108;DHT22;49;48.530;9.200;2023-06-14T02:21:21;16.20;1.00
108;DHT22;49;48.530;9.200;2023-06-14T02:23:47;16.00;1.00
108;DHT22;49;48.530;9.200;2023-06-14T02:26:14;16.00;1.00
108;DHT22;49;48.530;9.200;2023-06-14T02:28:42;15.90;1.00
108;DHT22;49;48.530;9.200;2023-06-14T02:31:09;15.90;1.00
108;DHT22;49;48.530;9.200;2023-06-14T02:33:36;15.90;1.00
108;DHT22;49;48.530;9.200;2023-06-14T02:36:03;16.00;1.00
108;DHT22;49;48.530;9.200;2023-06-14T02:38:30;16.00;1.00
108;DHT22;49;48.530;9.200;2023-06-14T02:40:57;15.90;1.00
108;DHT22;49;48.530;9.200;2023-06-14T02:43:24;15.90;1.00
108;DHT22;49;48.530;9.200;2023-06-14T02:45:53;15.90;1.00
108;DHT22;49;48.530;9.200;2023-06-14T02:48:20;15.70;1.00
108;DHT22;49;48.530;9.200;2023-06-14T02:50:47;15.60;1.00
108;DHT22;49;48.530;9.200;2023-06-14T02:53:13;15.60;1.00
108;DHT22;49;48.530;9.200;2023-06-14T02:55:41;15.70;1.00
108;DHT22;49;48.530;9.200;2023-06-14T02:58:08;15.80;1.00
108;DHT22;49;48.530;9.200;2023-06-14T03:00:35;15.60;1.00
108;DHT22;49;48.530;9.200;2023-06-14T03:03:05;15.70;1.00
108;DHT22;49;48.530;9.200;2023-06-14T03:05:37;15.80;1.00
108;DHT22;49;48.530;9.200;2023-06-14T03:08:06;15.70;1.00
108;DHT22;49;48.530;9.200;2023-06-14T03:10:34;15.70;1.00
108;DHT22;49;48.530;9.200;2023-06-14T03:13:01;15.80;1.00
108;DHT22;49;48.530;9.200;2023-06-14T03:15:28;15.60;1.00
108;DHT22;49;48.530;9.200;2023-06-14T03:17:57;15.50;1.00
108;DHT22;49;48.530;9.200;2023-06-14T03:20:26;15.40;1.00
108;DHT22;49;48.530;9.200;2023-06-14T03:22:58;15.50;1.00
108;DHT22;49;48.530;9.200;2023-06-14T03:25:25;15.50;1.00
108;DHT22;49;48.530;9.200;2023-06-14T03:27:54;15.50;1.00
108;DHT22;49;48.530;9.200;2023-06-14T03:30:21;15.40;1.00
108;DHT22;49;48.530;9.200;2023-06-14T03:32:48;15.30;1.00
108;DHT22;49;48.530;9.200;2023-06-14T03:35:16;15.40;1.00
108;DHT22;49;48.530;9.200;2023-06-14T03:37:45;16.20;1.00
108;DHT22;49;48.530;9.200;2023-06-14T06:18:26;31.90;1.00
108;DHT22;49;48.530;9.200;2023-06-14T06:50:40;34.20;1.00
108;DHT22;49;48.530;9.200;2023-06-14T07:22:47;33.50;1.00
108;DHT22;49;48.530;9.200;2023-06-14T07:59:56;34.80;1.00
108;DHT22;49;48.530;9.200;2023-06-14T08:12:18;31.70;1.00
108;DHT22;49;48.530;9.200;2023-06-14T08:17:14;31.10;1.00
108;DHT22;49;48.530;9.200;2023-06-14T08:24:36;31.30;1.00
108;DHT22;49;48.530;9.200;2023-06-14T08:27:05;30.10;1.00
108;DHT22;49;48.530;9.200;2023-06-14T08:29:32;29.40;1.00
108;DHT22;49;48.530;9.200;2023-06-14T08:36:56;30.90;1.00
108;DHT22;49;48.530;9.200;2023-06-14T08:39:23;30.70;1.00
108;DHT22;49;48.530;9.200;2023-06-14T08:41:52;30.00;1.00
108;DHT22;49;48.530;9.200;2023-06-14T08:44:19;29.50;1.00
108;DHT22;49;48.530;9.200;2023-06-14T08:46:48;28.50;1.00
108;DHT22;49;48.530;9.200;2023-06-14T08:51:43;28.50;1.00
108;DHT22;49;48.530;9.200;2023-06-14T08:54:12;28.50;1.00
108;DHT22;49;48.530;9.200;2023-06-14T08:56:40;28.90;1.00
108;DHT22;49;48.530;9.200;2023-06-14T08:59:09;28.90;1.00
108;DHT22;49;48.530;9.200;2023-06-14T09:01:37;28.60;1.00
108;DHT22;49;48.530;9.200;2023-06-14T09:04:05;28.40;1.00
108;DHT22;49;48.530;9.200;2023-06-14T09:06:32;28.70;1.00
108;DHT22;49;48.530;9.200;2023-06-14T09:08:59;29.00;1.00
108;DHT22;49;48.530;9.200;2023-06-14T09:11:28;28.30;1.00
108;DHT22;49;48.530;9.200;2023-06-14T09:13:54;28.60;1.00
108;DHT22;49;48.530;9.200;2023-06-14T09:18:50;28.70;1.00
108;DHT22;49;48.530;9.200;2023-06-14T09:21:17;29.20;1.00
108;DHT22;49;48.530;9.200;2023-06-14T09:31:12;28.10;1.00
108;DHT22;49;48.530;9.200;2023-06-14T09:33:41;28.00;1.00
108;DHT22;49;48.530;9.200;2023-06-14T09:36:11;27.80;1.00
108;DHT22;49;48.530;9.200;2023-06-14T09:41:07;26.80;1.00
108;DHT22;49;48.530;9.200;2023-06-14T09:43:38;27.20;1.00
108;DHT22;49;48.530;9.200;2023-06-14T09:48:37;27.50;1.00
108;DHT22;49;48.530;9.200;2023-06-14T09:51:09;27.60;1.00
108;DHT22;49;48.530;9.200;2023-06-14T09:53:37;27.60;1.00
108;DHT22;49;48.530;9.200;2023-06-14T09:58:37;27.70;1.00
108;DHT22;49;48.530;9.200;2023-06-14T10:01:08;27.40;1.00
108;DHT22;49;48.530;9.200;2023-06-14T10:03:42;27.50;1.00
108;DHT22;49;48.530;9.200;2023-06-14T10:06:10;27.40;1.00
108;DHT22;49;48.530;9.200;2023-06-14T10:08:38;27.10;1.00
108;DHT22;49;48.530;9.200;2023-06-14T10:13:35;26.30;1.00
108;DHT22;49;48.530;9.200;2023-06-14T10:16:10;26.90;1.00
108;DHT22;49;48.530;9.200;2023-06-14T10:18:48;27.00;1.00
108;DHT22;49;48.530;9.200;2023-06-14T10:21:22;26.50;1.00
108;DHT22;49;48.530;9.200;2023-06-14T10:23:50;26.70;1.00
108;DHT22;49;48.530;9.200;2023-06-14T10:26:20;27.30;1.00
108;DHT22;49;48.530;9.200;2023-06-14T10:28:58;27.70;1.00
108;DHT22;49;48.530;9.200;2023-06-14T10:31:40;27.90;1.00
108;DHT22;49;48.530;9.200;2023-06-14T10:34:10;27.40;1.00
108;DHT22;49;48.530;9.200;2023-06-14T10:36:38;26.70;1.00
108;DHT22;49;48.530;9.200;2023-06-14T10:39:16;27.00;1.00
108;DHT22;49;48.530;9.200;2023-06-14T10:47:26;27.90;1.00
108;DHT22;49;48.530;9.200;2023-06-14T10:49:55;27.70;1.00
108;DHT22;49;48.530;9.200;2023-06-14T10:52:25;27.60;1.00
108;DHT22;49;48.530;9.200;2023-06-14T10:55:14;27.00;1.00
108;DHT22;49;48.530;9.200;2023-06-14T10:57:44;26.60;1.00
108;DHT22;49;48.530;9.200;2023-06-14T11:00:14;26.90;1.00
108;DHT22;49;48.530;9.200;2023-06-14T11:03:15;26.90;1.00
108;DHT22;49;48.530;9.200;2023-06-14T11:05:52;27.20;1.00
108;DHT22;49;48.530;9.200;2023-06-14T11:08:46;27.90;1.00
108;DHT22;49;48.530;9.200;2023-06-14T11:11:17;28.00;1.00
108;DHT22;49;48.530;9.200;2023-06-14T11:13:46;28.40;1.00
108;DHT22;49;48.530;9.200;2023-06-14T11:23:39;29.00;1.00
108;DHT22;49;48.530;9.200;2023-06-14T11:26:06;29.20;1.00
108;DHT22;49;48.530;9.200;2023-06-14T11:28:37;29.10;1.00
108;DHT22;49;48.530;9.200;2023-06-14T11:31:04;29.20;1.00
108;DHT22;49;48.530;9.200;2023-06-14T11:33:32;28.70;1.00
108;DHT22;49;48.530;9.200;2023-06-14T11:36:02;28.20;1.00
108;DHT22;49;48.530;9.200;2023-06-14T11:38:30;27.80;1.00
108;DHT22;49;48.530;9.200;2023-06-14T11:41:00;27.50;1.00
108;DHT22;49;48.530;9.200;2023-06-14T11:43:27;26.70;1.00
108;DHT22;49;48.530;9.200;2023-06-14T11:45:57;26.80;1.00
108;DHT22;49;48.530;9.200;2023-06-14T11:48:35;27.40;1.00
108;DHT22;49;48.530;9.200;2023-06-14T11:51:03;27.20;1.00
108;DHT22;49;48.530;9.200;2023-06-14T11:53:29;26.90;1.00
108;DHT22;49;48.530;9.200;2023-06-14T11:55:57;27.10;1.00
108;DHT22;49;48.530;9.200;2023-06-14T11:58:26;27.10;1.00
108;DHT22;49;48.530;9.200;2023-06-14T12:03:23;28.30;1.00
108;DHT22;49;48.530;9.200;2023-06-14T12:05:50;28.60;1.00
108;DHT22;49;48.530;9.200;2023-06-14T12:08:33;28.20;1.00
108;DHT22;49;48.530;9.200;2023-06-14T12:11:04;27.70;1.00
108;DHT22;49;48.530;9.200;2023-06-14T12:13:33;27.40;1.00
108;DHT22;49;48.530;9.200;2023-06-14T12:18:34;26.50;1.00
108;DHT22;49;48.530;9.200;2023-06-14T12:21:02;27.00;1.00
108;DHT22;49;48.530;9.200;2023-06-14T12:23:43;27.30;1.00
108;DHT22;49;48.530;9.200;2023-06-14T12:26:13;27.30;1.00
108;DHT22;49;48.530;9.200;2023-06-14T12:28:42;28.10;1.00
108;DHT22;49;48.530;9.200;2023-06-14T12:38:33;27.90;1.00
108;DHT22;49;48.530;9.200;2023-06-14T12:43:27;27.50;1.00
108;DHT22;49;48.530;9.200;2023-06-14T12:45:56;26.90;1.00
108;DHT22;49;48.530;9.200;2023-06-14T12:48:23;26.80;1.00
108;DHT22;49;48.530;9.200;2023-06-14T12:50:50;27.00;1.00
108;DHT22;49;48.530;9.200;2023-06-14T12:53:17;27.20;1.00
108;DHT22;49;48.530;9.200;2023-06-14T12:55:44;27.50;1.00
108;DHT22;49;48.530;9.200;2023-06-14T13:00:44;27.90;1.00
108;DHT22;49;48.530;9.200;2023-06-14T13:03:12;27.50;1.00
108;DHT22;49;48.530;9.200;2023-06-14T13:08:09;27.50;1.00
108;DHT22;49;48.530;9.200;2023-06-14T13:10:36;28.30;1.00
108;DHT22;49;48.530;9.200;2023-06-14T13:13:03;28.20;1.00
108;DHT22;49;48.530;9.200;2023-06-14T13:15:30;27.10;1.00
108;DHT22;49;48.530;9.200;2023-06-14T13:17:57;26.70;1.00
108;DHT22;49;48.530;9.200;2023-06-14T13:20:25;26.80;1.00
108;DHT22;49;48.530;9.200;2023-06-14T13:22:52;27.10;1.00
108;DHT22;49;48.530;9.200;2023-06-14T13:27:48;27.90;1.00
108;DHT22;49;48.530;9.200;2023-06-14T13:30:15;28.20;1.00
108;DHT22;49;48.530;9.200;2023-06-14T13:42:35;27.50;1.00
108;DHT22;49;48.530;9.200;2023-06-14T13:45:03;27.10;1.00
108;DHT22;49;48.530;9.200;2023-06-14T13:49:58;27.40;1.00
108;DHT22;49;48.530;9.200;2023-06-14T14:02:19;27.80;1.00
108;DHT22;49;48.530;9.200;2023-06-14T14:04:46;27.70;1.00
108;DHT22;49;48.530;9.200;2023-06-14T14:07:18;27.50;1.00
108;DHT22;49;48.530;9.200;2023-06-14T14:09:45;27.00;1.00
108;DHT22;49;48.530;9.200;2023-06-14T14:12:13;26.50;1.00
108;DHT22;49;48.530;9.200;2023-06-14T14:14:40;26.60;1.00
108;DHT22;49;48.530;9.200;2023-06-14T14:17:07;26.30;1.00
108;DHT22;49;48.530;9.200;2023-06-14T14:19:36;26.10;1.00
108;DHT22;49;48.530;9.200;2023-06-14T14:22:04;26.50;1.00
108;DHT22;49;48.530;9.200;2023-06-14T14:24:30;26.10;1.00
108;DHT22;49;48.530;9.200;2023-06-14T14:26:57;26.30;1.00
108;DHT22;49;48.530;9.200;2023-06-14T14:29:25;26.60;1.00
108;DHT22;49;48.530;9.200;2023-06-14T14:34:30;27.40;1.00
108;DHT22;49;48.530;9.200;2023-06-14T14:37:02;27.20;1.00
108;DHT22;49;48.530;9.200;2023-06-14T14:39:29;27.40;1.00
108;DHT22;49;48.530;9.200;2023-06-14T14:41:56;27.70;1.00
108;DHT22;49;48.530;9.200;2023-06-14T14:44:23;28.00;1.00
108;DHT22;49;48.530;9.200;2023-06-14T14:46:50;27.70;1.00
108;DHT22;49;48.530;9.200;2023-06-14T14:49:17;27.20;1.00
108;DHT22;49;48.530;9.200;2023-06-14T14:54:13;27.40;1.00
108;DHT22;49;48.530;9.200;2023-06-14T14:56:40;27.00;1.00
108;DHT22;49;48.530;9.200;2023-06-14T14:59:07;26.40;1.00
108;DHT22;49;48.530;9.200;2023-06-14T15:01:34;26.60;1.00
108;DHT22;49;48.530;9.200;2023-06-14T15:04:05;26.60;1.00
108;DHT22;49;48.530;9.200;2023-06-14T15:06:32;26.60;1.00
108;DHT22;49;48.530;9.200;2023-06-14T15:09:01;26.40;1.00
108;DHT22;49;48.530;9.200;2023-06-14T15:11:30;26.40;1.00
108;DHT22;49;48.530;9.200;2023-06-14T15:13:57;26.60;1.00
108;DHT22;49;48.530;9.200;2023-06-14T15:18:52;27.30;1.00
108;DHT22;49;48.530;9.200;2023-06-14T15:31:12;27.50;1.00
108;DHT22;49;48.530;9.200;2023-06-14T15:33:39;27.60;1.00
108;DHT22;49;48.530;9.200;2023-06-14T15:38:34;27.70;1.00
108;DHT22;49;48.530;9.200;2023-06-14T15:43:29;28.60;1.00
108;DHT22;49;48.530;9.200;2023-06-14T15:48:25;27.60;1.00
108;DHT22;49;48.530;9.200;2023-06-14T15:50:52;26.80;1.00
108;DHT22;49;48.530;9.200;2023-06-14T15:53:19;26.40;1.00
108;DHT22;49;48.530;9.200;2023-06-14T15:55:46;26.70;1.00
108;DHT22;49;48.530;9.200;2023-06-14T15:58:13;26.50;1.00
108;DHT22;49;48.530;9.200;2023-06-14T16:00:40;26.60;1.00
108;DHT22;49;48.530;9.200;2023-06-14T16:03:07;26.50;1.00
108;DHT22;49;48.530;9.200;2023-06-14T16:05:35;26.40;1.00
108;DHT22;49;48.530;9.200;2023-06-14T16:08:02;26.50;1.00
108;DHT22;49;48.530;9.200;2023-06-14T16:10:29;26.40;1.00
108;DHT22;49;48.530;9.200;2023-06-14T16:12:56;26.70;1.00
108;DHT22;49;48.530;9.200;2023-06-14T16:17:51;26.80;1.00
108;DHT22;49;48.530;9.200;2023-06-14T16:20:19;26.70;1.00
108;DHT22;49;48.530;9.200;2023-06-14T16:25:15;27.00;1.00
108;DHT22;49;48.530;9.200;2023-06-14T16:27:42;27.30;1.00
108;DHT22;49;48.530;9.200;2023-06-14T16:32:37;27.10;1.00
108;DHT22;49;48.530;9.200;2023-06-14T16:40:01;27.10;1.00
108;DHT22;49;48.530;9.200;2023-06-14T16:42:29;27.00;1.00
108;DHT22;49;48.530;9.200;2023-06-14T16:44:57;26.40;1.00
108;DHT22;49;48.530;9.200;2023-06-14T16:47:26;25.90;1.00
108;DHT22;49;48.530;9.200;2023-06-14T16:49:53;25.80;1.00
108;DHT22;49;48.530;9.200;2023-06-14T16:52:19;26.10;1.00
108;DHT22;49;48.530;9.200;2023-06-14T16:54:46;26.20;1.00
108;DHT22;49;48.530;9.200;2023-06-14T16:57:13;26.20;1.00
108;DHT22;49;48.530;9.200;2023-06-14T16:59:42;26.10;1.00
108;DHT22;49;48.530;9.200;2023-06-14T17:02:09;25.90;1.00
108;DHT22;49;48.530;9.200;2023-06-14T17:04:36;26.00;1.00
108;DHT22;49;48.530;9.200;2023-06-14T17:07:03;26.20;1.00
108;DHT22;49;48.530;9.200;2023-06-14T17:09:30;26.40;1.00
108;DHT22;49;48.530;9.200;2023-06-14T17:11:57;26.50;1.00
108;DHT22;49;48.530;9.200;2023-06-14T17:14:24;26.60;1.00
108;DHT22;49;48.530;9.200;2023-06-14T17:16:55;26.30;1.00
108;DHT22;49;48.530;9.200;2023-06-14T17:19:22;26.40;1.00
108;DHT22;49;48.530;9.200;2023-06-14T17:21:49;26.20;1.00
108;DHT22;49;48.530;9.200;2023-06-14T17:24:18;26.20;1.00
108;DHT22;49;48.530;9.200;2023-06-14T17:26:44;26.10;1.00
108;DHT22;49;48.530;9.200;2023-06-14T17:29:11;26.30;1.00
108;DHT22;49;48.530;9.200;2023-06-14T17:31:38;26.30;1.00
108;DHT22;49;48.530;9.200;2023-06-14T17:34:07;26.20;1.00
108;DHT22;49;48.530;9.200;2023-06-14T17:36:34;26.10;1.00
108;DHT22;49;48.530;9.200;2023-06-14T17:39:01;26.20;1.00
108;DHT22;49;48.530;9.200;2023-06-14T17:41:29;26.20;1.00
108;DHT22;49;48.530;9.200;2023-06-14T17:43:56;25.90;1.00
108;DHT22;49;48.530;9.200;2023-06-14T17:46:23;25.70;1.00
108;DHT22;49;48.530;9.200;2023-06-14T17:48:50;25.60;1.00
108;DHT22;49;48.530;9.200;2023-06-14T17:51:19;25.70;1.00
108;DHT22;49;48.530;9.200;2023-06-14T17:53:46;26.10;1.00
108;DHT22;49;48.530;9.200;2023-06-14T17:56:13;26.00;1.00
108;DHT22;49;48.530;9.200;2023-06-14T17:58:40;26.00;1.00
108;DHT22;49;48.530;9.200;2023-06-14T18:01:07;25.60;1.00
108;DHT22;49;48.530;9.200;2023-06-14T18:03:34;25.70;1.00
108;DHT22;49;48.530;9.200;2023-06-14T18:06:01;25.60;1.00
108;DHT22;49;48.530;9.200;2023-06-14T18:08:31;25.50;1.00
108;DHT22;49;48.530;9.200;2023-06-14T18:10:58;25.40;1.00
108;DHT22;49;48.530;9.200;2023-06-14T18:13:25;25.40;1.00
108;DHT22;49;48.530;9.200;2023-06-14T18:15:52;25.20;1.00
108;DHT22;49;48.530;9.200;2023-06-14T18:18:19;25.20;1.00
108;DHT22;49;48.530;9.200;2023-06-14T18:20:46;25.40;1.00
108;DHT22;49;48.530;9.200;2023-06-14T18:23:13;25.30;1.00
108;DHT22;49;48.530;9.200;2023-06-14T18:25:42;25.00;1.00
108;DHT22;49;48.530;9.200;2023-06-14T18:28:08;24.90;1.00
108;DHT22;49;48.530;9.200;2023-06-14T18:30:35;24.70;1.00
108;DHT22;49;48.530;9.200;2023-06-14T18:33:02;24.60;1.00
108;DHT22;49;48.530;9.200;2023-06-14T18:35:29;24.60;1.00
108;DHT22;49;48.530;9.200;2023-06-14T18:37:56;24.50;1.00
108;DHT22;49;48.530;9.200;2023-06-14T18:40:23;24.50;1.00
108;DHT22;49;48.530;9.200;2023-06-14T18:42:51;24.60;1.00
108;DHT22;49;48.530;9.200;2023-06-14T18:47:46;24.50;1.00
108;DHT22;49;48.530;9.200;2023-06-14T18:52:42;24.50;1.00
108;DHT22;49;48.530;9.200;2023-06-14T18:55:10;24.30;1.00
108;DHT22;49;48.530;9.200;2023-06-14T18:57:37;24.20;1.00
108;DHT22;49;48.530;9.200;2023-06-14T19:00:17;24.10;1.00
108;DHT22;49;48.530;9.200;2023-06-14T19:05:14;23.70;1.00
108;DHT22;49;48.530;9.200;2023-06-14T19:07:41;23.80;1.00
108;DHT22;49;48.530;9.200;2023-06-14T19:10:09;23.70;1.00
108;DHT22;49;48.530;9.200;2023-06-14T19:15:10;23.90;1.00
108;DHT22;49;48.530;9.200;2023-06-14T19:17:37;24.10;1.00
108;DHT22;49;48.530;9.200;2023-06-14T19:20:06;24.10;1.00
108;DHT22;49;48.530;9.200;2023-06-14T19:22:33;24.00;1.00
108;DHT22;49;48.530;9.200;2023-06-14T19:25:01;24.00;1.00
108;DHT22;49;48.530;9.200;2023-06-14T19:30:04;24.10;1.00
108;DHT22;49;48.530;9.200;2023-06-14T19:32:33;24.10;1.00
108;DHT22;49;48.530;9.200;2023-06-14T19:35:01;23.70;1.00
108;DHT22;49;48.530;9.200;2023-06-14T19:44:53;24.10;1.00
108;DHT22;49;48.530;9.200;2023-06-14T19:57:23;24.20;1.00
108;DHT22;49;48.530;9.200;2023-06-14T19:59:50;24.20;1.00
108;DHT22;49;48.530;9.200;2023-06-14T20:04:45;24.10;1.00
108;DHT22;49;48.530;9.200;2023-06-14T20:09:41;23.90;1.00
108;DHT22;49;48.530;9.200;2023-06-14T20:12:08;23.70;1.00
108;DHT22;49;48.530;9.200;2023-06-14T20:14:38;23.40;1.00
108;DHT22;49;48.530;9.200;2023-06-14T20:17:05;23.40;1.00
108;DHT22;49;48.530;9.200;2023-06-14T20:19:32;23.40;1.00
108;DHT22;49;48.530;9.200;2023-06-14T20:24:32;23.00;1.00
108;DHT22;49;48.530;9.200;2023-06-14T20:27:00;22.90;1.00
108;DHT22;49;48.530;9.200;2023-06-14T20:29:27;23.10;1.00
108;DHT22;49;48.530;9.200;2023-06-14T20:34:25;23.10;1.00
108;DHT22;49;48.530;9.200;2023-06-14T20:44:15;23.60;1.00
108;DHT22;49;48.530;9.200;2023-06-14T20:56:38;23.50;1.00
108;DHT22;49;48.530;9.200;2023-06-14T21:01:33;22.60;1.00
108;DHT22;49;48.530;9.200;2023-06-14T21:06:28;22.40;1.00
108;DHT22;49;48.530;9.200;2023-06-14T21:08:55;22.40;1.00
108;DHT22;49;48.530;9.200;2023-06-14T22:23:17;22.30;1.00
108;DHT22;49;48.530;9.200;2023-06-14T23:00:31;21.70;1.00
108;DHT22;49;48.530;9.200;2023-06-14T23:15:23;21.60;1.00
